Terminal Aerodrome Forecast
Issued by NWS Bismarck, ND

Home | Current Version | Previous Version | Graphics & Text | Print | Product List | Glossary On
Versions: 1 2 3 4 5 6 7 8 9 10 11 12 13 14 15 16
000
FTUS43 KBIS 241100
TAFISN
TAF
KISN 241138Z 2412/2512 26007KT P6SM -RA OVC080
      TEMPO 2412/2414 -FZRA SCT020 OVC045
     FM241400 28008KT 4SM BR VCSH OVC015
     FM241800 30011KT P6SM VCSH OVC020
     FM242000 31015G25KT P6SM -RASN OVC015
     FM250000 31018G24KT P6SM SCT018 OVC025=

USA.gov is the U.S. government's official web portal to all federal, state and local government web resources and services.